Time;durP1;ratioP1;P1;durP2;ratioP2;P2;SDS_P1;SDS_P2;PMS_P1;PMS_P2;Temp;Humidity;BMP_temperature;BMP_pressure;BME280_temperature;BME280_humidity;BME280_pressure;Samples;Min_cycle;Max_cycle;Signal;HPM_P1;HPM_P2
2021/11/12 00:12:16;;;;;;;;;48.33;38.00;;;;;10.78;51.62;99494.16;6165266;28;97204;-62
2021/11/12 00:15:19;;;;;;;;;52.00;40.00;;;;;10.73;51.92;99485.84;6222435;28;97950;-63
2021/11/12 00:18:27;;;;;;;;;50.00;40.20;;;;;10.53;52.22;99477.75;6218826;28;97462;-63
2021/11/12 00:21:31;;;;;;;;;50.60;40.80;;;;;10.56;52.50;99485.44;6228057;28;96433;-64
2021/11/12 00:24:34;;;;;;;;;53.00;41.00;;;;;10.59;52.30;99490.44;6215576;28;97506;-63
2021/11/12 00:27:38;;;;;;;;;53.40;41.00;;;;;10.57;52.02;99483.56;6208658;28;98476;-65
2021/11/12 00:30:52;;;;;;;;;49.50;40.50;;;;;10.57;52.30;99497.88;6222374;28;96760;-63
2021/11/12 00:34:25;;;;;;;;;52.20;40.80;;;;;10.58;52.34;99491.44;6225990;28;96508;-64
2021/11/12 00:37:42;;;;;;;;;54.20;41.00;;;;;10.60;52.37;99492.09;6231864;28;97192;-63
2021/11/12 00:40:53;;;;;;;;;55.00;41.40;;;;;10.59;52.18;99495.81;6218541;27;97687;-64
2021/11/12 00:44:01;;;;;;;;;52.00;40.00;;;;;10.62;51.96;99494.56;6235074;28;97450;-65
2021/11/12 00:47:07;;;;;;;;;53.00;42.40;;;;;10.63;52.12;99498.91;6228985;28;97237;-65
2021/11/12 00:50:30;;;;;;;;;52.80;42.00;;;;;10.70;51.93;99500.56;6225308;28;97762;-65
2021/11/12 00:56:59;;;;;;;;;52.00;41.00;;;;;10.73;51.71;99494.78;6212663;27;98597;-63
2021/11/12 01:00:04;;;;;;;;;49.60;40.40;;;;;10.69;51.73;99484.63;6206243;28;98458;-65
2021/11/12 01:03:07;;;;;;;;;52.00;41.80;;;;;10.53;51.75;99461.59;6211637;28;97479;-65
2021/11/12 01:06:12;;;;;;;;;52.60;41.00;;;;;10.63;51.91;99502.44;6215953;28;97529;-65
2021/11/12 01:09:18;;;;;;;;;55.40;41.60;;;;;10.61;51.80;99496.41;6229235;28;97450;-64
2021/11/12 01:12:22;;;;;;;;;53.40;40.00;;;;;10.52;52.06;99491.44;6212986;28;97649;-63
2021/11/12 01:15:25;;;;;;;;;49.60;40.00;;;;;10.47;52.11;99478.59;6217086;28;96743;-65
2021/11/12 01:18:29;;;;;;;;;52.00;40.00;;;;;10.57;52.34;99500.56;6228867;28;97851;-64
2021/11/12 01:21:33;;;;;;;;;50.00;40.40;;;;;10.71;52.08;99493.31;6232747;27;97164;-65
2021/11/12 01:24:37;;;;;;;;;52.60;41.00;;;;;10.72;52.50;99493.09;6232536;28;98106;-65
2021/11/12 01:27:42;;;;;;;;;52.67;40.67;;;;;10.75;52.13;99492.69;6237375;28;97598;-64
2021/11/12 01:30:45;;;;;;;;;50.75;38.75;;;;;10.76;52.21;99486.25;6223281;28;96752;-64
2021/11/12 01:33:49;;;;;;;;;49.60;39.60;;;;;10.75;52.08;99483.78;6216396;28;96992;-64
2021/11/12 01:36:53;;;;;;;;;47.60;38.60;;;;;10.76;52.48;99493.50;6218757;28;96645;-64
2021/11/12 01:40:00;;;;;;;;;51.50;38.00;;;;;10.89;52.26;99492.69;6222470;28;96580;-65
2021/11/12 01:43:09;;;;;;;;;54.40;40.20;;;;;11.00;52.10;99489.34;6221104;28;97112;-63
2021/11/12 01:46:30;;;;;;;;;50.00;41.00;;;;;11.09;51.71;99499.72;6205529;28;96403;-64
2021/11/12 01:49:35;;;;;;;;;52.75;39.75;;;;;11.19;51.38;99499.31;6218477;28;97747;-64
2021/11/12 01:52:43;;;;;;;;;53.80;41.20;;;;;11.26;51.16;99505.50;6221742;28;98317;-65
2021/11/12 01:55:49;;;;;;;;;51.00;40.75;;;;;11.31;51.08;99497.59;6215265;28;97043;-65
2021/11/12 01:59:08;;;;;;;;;52.00;40.00;;;;;11.33;50.76;99492.00;6214599;28;97672;-65
2021/11/12 02:02:11;;;;;;;;;54.00;42.00;;;;;11.33;50.87;99497.41;6208763;28;99633;-63
2021/11/12 02:05:17;;;;;;;;;50.80;40.80;;;;;11.41;50.69;99492.59;6214667;28;98006;-65
2021/11/12 02:08:22;;;;;;;;;53.20;40.20;;;;;11.41;50.70;99500.69;6228401;28;96650;-63
2021/11/12 02:11:27;;;;;;;;;55.00;41.00;;;;;11.48;50.45;99492.59;6217499;28;97723;-65
2021/11/12 02:14:31;;;;;;;;;50.80;40.00;;;;;11.52;50.13;99488.41;6219001;28;96420;-64
2021/11/12 02:17:37;;;;;;;;;52.80;42.00;;;;;11.57;50.19;99486.72;6227079;27;96681;-62
2021/11/12 02:20:50;;;;;;;;;53.60;41.00;;;;;11.58;50.23;99492.97;6224277;28;98113;-64
2021/11/12 02:24:00;;;;;;;;;54.00;42.40;;;;;11.61;50.11;99489.81;6213816;28;96876;-62
2021/11/12 02:27:07;;;;;;;;;54.20;41.60;;;;;11.64;50.03;99486.69;6209822;28;97459;-64
2021/11/12 02:30:18;;;;;;;;;53.00;42.00;;;;;11.61;49.40;99482.56;6212410;28;99114;-64
2021/11/12 02:33:24;;;;;;;;;57.00;42.00;;;;;11.51;50.35;99479.47;6214004;28;97200;-62
2021/11/12 02:36:28;;;;;;;;;50.00;41.00;;;;;11.40;50.30;99469.31;6201732;28;97128;-64
2021/11/12 02:39:32;;;;;;;;;55.00;42.00;;;;;11.32;50.40;99476.84;6217342;28;97026;-64
2021/11/12 02:42:35;;;;;;;;;54.20;41.00;;;;;11.26;50.57;99486.59;6239010;27;97738;-65
2021/11/12 02:45:39;;;;;;;;;57.50;43.75;;;;;11.20;50.63;99484.75;6209675;28;96969;-64
2021/11/12 02:48:43;;;;;;;;;56.33;44.00;;;;;11.20;50.57;99479.34;6209993;28;97250;-64
2021/11/12 02:51:48;;;;;;;;;56.00;42.50;;;;;11.18;50.93;99481.44;6224569;28;96953;-64
2021/11/12 02:54:52;;;;;;;;;55.00;43.00;;;;;11.13;51.09;99479.38;6209077;28;97416;-65
2021/11/12 02:57:55;;;;;;;;;54.00;42.00;;;;;11.12;51.24;99463.38;6208603;28;96795;-64
2021/11/12 03:00:59;;;;;;;;;58.20;43.00;;;;;11.14;51.13;99472.13;6223681;28;97405;-65
2021/11/12 03:04:04;;;;;;;;;52.80;40.00;;;;;11.13;51.24;99476.69;6195596;28;97185;-65
2021/11/12 03:07:09;;;;;;;;;55.00;41.50;;;;;11.09;51.50;99471.91;6192694;28;100325;-65
2021/11/12 03:10:14;;;;;;;;;55.20;42.20;;;;;11.09;51.40;99467.31;6208554;28;96948;-64
2021/11/12 03:13:17;;;;;;;;;50.40;40.00;;;;;11.16;51.18;99473.56;6207565;28;96933;-63
2021/11/12 03:16:21;;;;;;;;;57.40;42.40;;;;;11.16;51.45;99473.56;6212012;28;97299;-65
2021/11/12 03:19:26;;;;;;;;;56.00;41.00;;;;;11.17;51.37;99467.13;6211405;28;96808;-64
2021/11/12 03:22:35;;;;;;;;;53.50;42.75;;;;;11.19;51.35;99470.41;6210115;28;96739;-63
2021/11/12 03:25:43;;;;;;;;;56.00;44.00;;;;;11.25;51.23;99479.53;6211916;28;96773;-65
2021/11/12 03:29:09;;;;;;;;;57.60;43.00;;;;;11.32;51.07;99472.28;6211138;28;96767;-64
2021/11/12 04:02:36;;;;;;;;;53.00;42.75;;;;;11.61;50.36;99473.63;6206572;28;98998;-61
2021/11/12 04:49:58;;;;;;;;;60.60;43.00;;;;;11.58;50.19;99499.16;6137247;28;97762;-64
2021/11/12 05:09:40;;;;;;;;;58.67;43.33;;;;;11.46;50.44;99498.19;6211723;28;98350;-62
2021/11/12 05:10:16;;;;;;;;;57.40;44.00;;;;;11.44;50.49;99492.16;6200319;28;96850;-63
2021/11/12 05:13:34;;;;;;;;;56.00;43.80;;;;;11.42;50.42;99512.31;6213233;28;96578;-64
2021/11/12 05:34:19;;;;;;;;;56.40;43.60;;;;;11.32;50.82;99530.81;6168118;28;97620;-64
2021/11/12 05:43:54;;;;;;;;;53.80;42.00;;;;;11.44;50.66;99519.16;6182709;28;97639;-62
2021/11/12 05:47:13;;;;;;;;;53.60;42.20;;;;;11.44;50.52;99529.94;6180865;28;98446;-63
2021/11/12 05:50:18;;;;;;;;;58.33;44.00;;;;;11.40;50.77;99520.63;6170126;28;97355;-63
2021/11/12 05:56:45;;;;;;;;;55.80;41.40;;;;;11.41;50.87;99526.84;6180740;28;98038;-65
2021/11/12 05:59:51;;;;;;;;;55.40;41.40;;;;;11.41;51.00;99529.56;6213400;28;97329;-64
2021/11/12 06:02:54;;;;;;;;;50.60;41.00;;;;;11.44;50.97;99526.41;6210829;28;96875;-63
2021/11/12 06:05:58;;;;;;;;;52.00;40.00;;;;;11.53;50.77;99523.28;6211673;28;97348;-62
2021/11/12 06:09:05;;;;;;;;;53.00;42.00;;;;;11.59;50.54;99521.59;6205768;28;97699;-64
2021/11/12 06:12:11;;;;;;;;;53.00;42.00;;;;;11.69;50.47;99524.69;6191657;28;97210;-64
2021/11/12 06:15:14;;;;;;;;;53.75;41.00;;;;;11.78;50.43;99525.34;6212014;28;98063;-65
2021/11/12 06:18:17;;;;;;;;;48.00;39.00;;;;;11.78;50.37;99533.44;6212228;28;96758;-64
2021/11/12 06:21:21;;;;;;;;;50.20;40.00;;;;;11.83;50.19;99526.31;6211385;28;97352;-64
2021/11/12 06:24:26;;;;;;;;;53.75;42.00;;;;;11.85;50.22;99531.53;6221298;28;98051;-65
2021/11/12 06:27:30;;;;;;;;;52.00;42.00;;;;;11.90;50.08;99537.94;6212137;28;97436;-64
2021/11/12 06:30:34;;;;;;;;;51.00;40.20;;;;;11.92;50.06;99535.88;6211319;28;96348;-65
2021/11/12 06:33:37;;;;;;;;;52.00;39.60;;;;;11.99;50.19;99538.53;6210376;28;98507;-64
2021/11/12 06:36:41;;;;;;;;;54.40;42.00;;;;;12.01;49.98;99541.84;6208595;28;97550;-63
2021/11/12 06:39:45;;;;;;;;;50.00;39.00;;;;;12.06;49.99;99547.44;6210848;28;96567;-63
2021/11/12 06:43:06;;;;;;;;;52.00;41.00;;;;;12.11;49.77;99553.03;6242620;27;98005;-62
2021/11/12 06:49:31;;;;;;;;;52.00;40.00;;;;;12.21;49.54;99544.47;6191034;28;97128;-63
2021/11/12 06:52:35;;;;;;;;;55.75;42.00;;;;;12.23;49.49;99545.88;6210292;28;97319;-62
2021/11/12 06:55:40;;;;;;;;;54.00;42.00;;;;;12.28;49.56;99547.94;6205705;28;98121;-64
2021/11/12 06:58:43;;;;;;;;;54.00;40.60;;;;;12.26;49.68;99541.94;6209410;28;96824;-62
2021/11/12 07:01:47;;;;;;;;;50.60;40.00;;;;;12.30;49.58;99535.03;6184890;28;100468;-64
2021/11/12 07:04:52;;;;;;;;;50.60;40.00;;;;;12.34;49.48;99539.78;6211121;28;96699;-64
2021/11/12 07:07:55;;;;;;;;;54.60;41.00;;;;;12.39;49.39;99536.44;6210274;28;97837;-64
2021/11/12 07:11:00;;;;;;;;;51.00;40.80;;;;;12.45;49.27;99544.53;6210315;28;96892;-63
2021/11/12 07:14:05;;;;;;;;;50.40;40.00;;;;;12.53;49.00;99546.97;6210715;28;97393;-63
2021/11/12 07:17:08;;;;;;;;;55.40;41.00;;;;;12.55;49.02;99544.88;6207962;28;97464;-65
2021/11/12 07:20:12;;;;;;;;;53.20;40.00;;;;;12.61;49.01;99547.75;6218902;28;97675;-62
2021/11/12 07:23:16;;;;;;;;;51.00;40.40;;;;;12.68;48.63;99543.09;6213109;28;97494;-62
2021/11/12 07:26:21;;;;;;;;;52.20;40.00;;;;;12.71;48.79;99540.78;6212309;28;97106;-64
2021/11/12 07:29:26;;;;;;;;;55.75;40.75;;;;;12.75;48.69;99544.75;6210711;28;97882;-64
2021/11/12 07:32:30;;;;;;;;;50.80;39.00;;;;;12.78;48.20;99541.59;6212479;28;97138;-65
2021/11/12 07:35:37;;;;;;;;;54.00;41.50;;;;;12.83;48.23;99552.56;6226580;28;96607;-64
2021/11/12 07:38:48;;;;;;;;;50.75;40.25;;;;;12.87;48.24;99545.66;6204195;28;98434;-65
2021/11/12 07:42:08;;;;;;;;;52.75;39.50;;;;;12.92;48.27;99540.41;6204720;28;98479;-65
2021/11/12 07:45:18;;;;;;;;;55.00;41.50;;;;;13.03;48.07;99544.28;6205035;28;97371;-65
2021/11/12 07:48:23;;;;;;;;;53.00;40.00;;;;;13.07;48.27;99550.09;6209531;28;97397;-64
2021/11/12 07:51:28;;;;;;;;;51.60;40.00;;;;;13.11;47.92;99548.59;6211118;28;97301;-65
2021/11/12 07:54:32;;;;;;;;;51.00;39.80;;;;;13.16;47.66;99552.31;6210773;28;97262;-62
2021/11/12 07:57:37;;;;;;;;;53.00;40.00;;;;;13.12;47.46;99531.31;6193046;28;99166;-62
2021/11/12 08:00:40;;;;;;;;;54.20;42.00;;;;;13.20;47.83;99533.75;6208085;28;97567;-64
2021/11/12 08:03:46;;;;;;;;;50.60;40.00;;;;;13.21;48.03;99540.81;6224579;28;96494;-62
2021/11/12 08:06:52;;;;;;;;;48.00;39.00;;;;;13.27;47.46;99537.22;6209119;28;96813;-62
2021/11/12 08:09:58;;;;;;;;;53.60;39.60;;;;;13.29;47.47;99535.13;6207393;28;98711;-63
2021/11/12 08:13:08;;;;;;;;;51.00;38.80;;;;;13.29;47.64;99522.41;6207053;28;96769;-64
2021/11/12 08:16:26;;;;;;;;;49.00;36.00;;;;;13.34;47.34;99527.16;6209088;28;98072;-62
2021/11/12 08:19:34;;;;;;;;;47.80;38.40;;;;;13.41;47.21;99527.91;6209321;28;97212;-63
2021/11/12 08:22:41;;;;;;;;;47.80;37.00;;;;;13.42;47.00;99525.00;6210105;28;97330;-63
2021/11/12 08:25:48;;;;;;;;;49.40;38.40;;;;;13.46;46.72;99528.06;6207003;28;96640;-64
2021/11/12 08:29:07;;;;;;;;;47.40;36.00;;;;;13.51;46.65;99530.09;6209693;28;97344;-65
2021/11/12 08:36:03;;;;;;;;;48.75;37.75;;;;;13.63;46.59;99526.44;6193640;28;97495;-62
2021/11/12 08:39:14;;;;;;;;;45.00;35.00;;;;;13.65;46.69;99527.03;6239977;27;97546;-63
2021/11/12 08:42:22;;;;;;;;;45.00;36.00;;;;;13.70;46.26;99529.06;6209274;28;97160;-62
2021/11/12 08:45:29;;;;;;;;;48.60;37.00;;;;;13.74;46.28;99536.50;6196453;28;97009;-64
2021/11/12 08:48:41;;;;;;;;;47.00;36.60;;;;;13.78;46.24;99524.16;6205891;28;96829;-63
2021/11/12 08:51:44;;;;;;;;;43.50;34.50;;;;;13.84;45.99;99517.00;6206409;28;97595;-63
2021/11/12 08:54:52;;;;;;;;;49.00;35.50;;;;;13.85;46.17;99514.06;6242039;27;96766;-64
2021/11/12 08:57:56;;;;;;;;;44.40;35.00;;;;;13.85;46.39;99510.53;6209509;28;96775;-62
2021/11/12 09:01:01;;;;;;;;;48.00;36.60;;;;;14.01;45.93;99520.75;6206371;28;98195;-63
2021/11/12 09:04:05;;;;;;;;;44.60;34.00;;;;;14.06;46.01;99512.75;6207446;28;97187;-64
2021/11/12 09:07:09;;;;;;;;;44.40;35.40;;;;;14.11;45.63;99510.19;6211311;28;98570;-63
2021/11/12 09:10:13;;;;;;;;;43.00;34.00;;;;;14.19;45.17;99514.44;6217868;28;97900;-62
2021/11/12 09:13:19;;;;;;;;;45.00;34.00;;;;;14.22;45.01;99509.38;6205533;28;98207;-64
2021/11/12 09:16:30;;;;;;;;;40.00;33.00;;;;;14.23;44.76;99502.91;6211813;28;97091;-64
2021/11/12 09:19:45;;;;;;;;;41.40;33.00;;;;;14.21;44.55;99491.50;6212880;28;96480;-62
2021/11/12 09:22:48;;;;;;;;;39.00;33.00;;;;;14.25;44.91;99494.56;6221725;28;98404;-62
2021/11/12 09:25:52;;;;;;;;;36.40;30.80;;;;;14.29;44.54;99484.91;6219586;28;96703;-63
2021/11/12 09:28:56;;;;;;;;;37.75;32.00;;;;;14.29;44.46;99490.31;6191037;28;98510;-62
2021/11/12 09:32:00;;;;;;;;;36.00;29.75;;;;;14.31;44.37;99493.63;6211771;28;97172;-63
2021/11/12 09:35:05;;;;;;;;;41.00;31.00;;;;;14.32;44.19;99487.13;6212544;28;97163;-64
2021/11/12 09:38:11;;;;;;;;;35.75;30.00;;;;;14.31;44.13;99489.03;6212534;28;97482;-62
2021/11/12 09:41:15;;;;;;;;;36.00;29.00;;;;;14.31;43.86;99490.94;6211806;28;96870;-62
2021/11/12 09:44:19;;;;;;;;;32.60;26.60;;;;;14.27;43.73;99487.81;6212639;28;99087;-62
2021/11/12 09:47:25;;;;;;;;;33.00;27.20;;;;;14.24;44.10;99485.59;6216020;28;97876;-62
2021/11/12 09:50:30;;;;;;;;;35.50;29.00;;;;;14.18;44.15;99488.38;6193728;28;96873;-62
2021/11/12 09:53:34;;;;;;;;;32.60;27.60;;;;;14.07;44.21;99479.19;6211321;28;97966;-62
2021/11/12 09:56:37;;;;;;;;;37.00;30.40;;;;;14.05;44.26;99481.28;6212667;28;98421;-63
2021/11/12 09:59:41;;;;;;;;;35.80;30.00;;;;;14.06;44.64;99479.41;6212188;28;97269;-62
2021/11/12 10:02:48;;;;;;;;;35.00;31.00;;;;;13.99;44.98;99482.19;6211304;28;97283;-63
2021/11/12 10:05:52;;;;;;;;;34.40;30.00;;;;;13.93;44.78;99466.03;6216770;28;97842;-63
2021/11/12 10:08:57;;;;;;;;;33.00;30.00;;;;;13.90;44.82;99464.59;6220873;27;97300;-63
2021/11/12 10:12:00;;;;;;;;;32.60;27.00;;;;;13.94;44.85;99468.50;6212360;28;96687;-63
2021/11/12 10:15:16;;;;;;;;;34.60;29.60;;;;;13.89;44.82;99458.34;6212421;28;97136;-64
2021/11/12 10:18:21;;;;;;;;;37.20;28.00;;;;;13.96;44.91;99463.69;6206411;28;96860;-63
2021/11/12 10:21:27;;;;;;;;;35.00;30.00;;;;;14.03;44.76;99452.72;6204764;28;98920;-62
2021/11/12 10:24:34;;;;;;;;;32.50;28.00;;;;;13.99;44.57;99451.53;6211756;28;96739;-62
2021/11/12 10:27:40;;;;;;;;;31.00;27.50;;;;;14.10;44.46;99442.63;6205558;28;96622;-63
2021/11/12 10:30:43;;;;;;;;;34.50;29.00;;;;;14.14;44.43;99441.09;6193636;28;97326;-63
2021/11/12 10:33:52;;;;;;;;;33.40;28.00;;;;;14.22;44.30;99444.31;6220103;28;96728;-63
2021/11/12 10:37:02;;;;;;;;;38.00;30.50;;;;;14.35;44.33;99437.03;6212986;28;97493;-63
2021/11/12 10:40:14;;;;;;;;;35.00;30.00;;;;;14.38;43.91;99432.00;6212071;28;96701;-64
2021/11/12 10:43:23;;;;;;;;;39.00;30.80;;;;;14.39;43.97;99430.09;6212645;28;97070;-64
2021/11/12 10:46:40;;;;;;;;;33.80;28.20;;;;;14.44;43.96;99422.09;6212564;28;97884;-64
2021/11/12 10:49:48;;;;;;;;;30.20;27.60;;;;;14.48;43.62;99421.41;6212977;28;96818;-63
2021/11/12 10:52:53;;;;;;;;;37.40;30.40;;;;;14.51;43.52;99417.41;6212802;28;96718;-63
2021/11/12 10:55:58;;;;;;;;;42.40;32.00;;;;;14.56;43.59;99412.91;6227152;28;97309;-64
2021/11/12 10:59:07;;;;;;;;;36.40;31.00;;;;;14.58;43.47;99407.25;6226732;28;96568;-63
2021/11/12 11:02:10;;;;;;;;;35.75;29.75;;;;;14.54;43.52;99393.34;6210193;28;97042;-65
2021/11/12 11:05:40;;;;;;;;;33.60;28.60;;;;;14.27;44.09;99405.63;6210383;28;98201;-63
2021/11/12 11:08:52;;;;;;;;;30.80;26.60;;;;;13.91;44.59;99405.78;6210771;28;96649;-62
2021/11/12 11:11:55;;;;;;;;;30.40;29.00;;;;;13.94;44.72;99398.00;6223441;27;96702;-63
2021/11/12 11:15:15;;;;;;;;;33.60;30.00;;;;;14.04;44.74;99401.00;6210255;28;97398;-64
2021/11/12 11:18:24;;;;;;;;;31.50;29.00;;;;;14.22;44.92;99395.50;6209794;28;97477;-63
2021/11/12 11:21:30;;;;;;;;;36.00;30.00;;;;;14.38;44.60;99385.88;6222534;28;97809;-64
2021/11/12 11:24:34;;;;;;;;;36.40;30.40;;;;;14.49;43.89;99385.06;6209326;28;98297;-64
2021/11/12 11:27:38;;;;;;;;;37.00;30.00;;;;;14.47;44.15;99386.34;6224846;28;96776;-63
2021/11/12 11:30:41;;;;;;;;;38.00;31.25;;;;;14.51;43.80;99382.97;6209385;28;96891;-63
2021/11/12 11:33:51;;;;;;;;;36.00;29.60;;;;;14.55;43.77;99381.44;6209651;28;99149;-63
2021/11/12 11:37:02;;;;;;;;;38.50;30.75;;;;;14.50;43.42;99375.88;6209510;28;97163;-63
2021/11/12 11:40:07;;;;;;;;;37.60;31.00;;;;;14.62;44.02;99382.13;6209823;28;97832;-65
2021/11/12 11:43:11;;;;;;;;;36.00;31.00;;;;;14.69;43.67;99373.88;6211680;28;98240;-62
2021/11/12 11:46:17;;;;;;;;;37.00;31.00;;;;;14.71;43.73;99375.28;6211789;28;96565;-63
2021/11/12 11:49:23;;;;;;;;;36.40;30.20;;;;;14.74;43.61;99369.38;6208342;28;97818;-63
2021/11/12 11:52:29;;;;;;;;;38.00;32.00;;;;;14.76;43.55;99366.41;6211053;28;98053;-62
2021/11/12 11:55:36;;;;;;;;;37.50;32.00;;;;;14.85;43.31;99361.47;6211290;28;97162;-63
2021/11/12 11:58:42;;;;;;;;;33.80;29.80;;;;;14.92;43.39;99363.00;6210112;28;97251;-62
2021/11/12 12:01:49;;;;;;;;;40.00;32.00;;;;;14.94;42.93;99362.75;6210576;28;97529;-62
2021/11/12 12:04:59;;;;;;;;;38.20;31.60;;;;;14.85;43.46;99354.16;6210411;28;96557;-62
2021/11/12 12:08:27;;;;;;;;;39.00;32.00;;;;;14.89;43.53;99349.06;6209231;28;97497;-62
2021/11/12 12:11:30;;;;;;;;;40.60;32.00;;;;;14.80;43.50;99353.22;6210147;28;97488;-63
2021/11/12 12:14:36;;;;;;;;;44.25;33.00;;;;;14.68;43.45;99345.06;6225096;28;96890;-62
2021/11/12 12:17:43;;;;;;;;;43.80;33.00;;;;;14.63;43.75;99351.22;6210470;28;97481;-63
2021/11/12 12:21:20;;;;;;;;;41.40;33.00;;;;;14.59;44.03;99350.03;6210237;28;96477;-62
2021/11/12 12:35:03;;;;;;;;;43.00;34.20;;;;;14.67;43.94;99341.53;6195766;28;96471;-63
2021/11/12 12:38:49;;;;;;;;;42.00;32.60;;;;;14.59;43.84;99341.06;6195487;28;96840;-64
2021/11/12 13:19:58;;;;;;;;;45.40;34.40;;;;;14.43;45.04;99320.06;6205233;28;99500;-64
2021/11/12 13:23:16;;;;;;;;;50.00;37.00;;;;;14.44;45.02;99316.31;6213305;28;97102;-63
2021/11/12 13:26:19;;;;;;;;;45.40;36.00;;;;;14.28;44.72;99321.34;6213438;28;96880;-62
2021/11/12 13:29:22;;;;;;;;;45.00;36.00;;;;;14.26;44.99;99319.94;6212602;28;97509;-62
2021/11/12 13:32:27;;;;;;;;;46.60;35.60;;;;;14.11;45.34;99324.97;6212718;28;96915;-63
2021/11/12 13:35:31;;;;;;;;;48.60;38.00;;;;;13.85;45.97;99316.22;6213521;28;97997;-63
2021/11/12 13:38:40;;;;;;;;;49.00;38.00;;;;;13.81;45.92;99314.19;6213961;28;97751;-64
2021/11/12 13:41:46;;;;;;;;;47.00;37.75;;;;;13.82;46.04;99313.16;6213266;28;99067;-63
2021/11/12 13:44:49;;;;;;;;;48.25;36.25;;;;;13.81;46.30;99309.59;6196466;28;97298;-64
2021/11/12 13:48:09;;;;;;;;;48.25;36.00;;;;;13.70;46.46;99310.41;6212722;28;96563;-64
2021/11/12 13:51:13;;;;;;;;;51.60;39.00;;;;;13.71;46.51;99312.06;6219303;28;96766;-63
2021/11/12 13:54:16;;;;;;;;;49.40;39.00;;;;;13.70;46.37;99313.09;6210688;28;97130;-63
2021/11/12 13:57:22;;;;;;;;;49.00;38.00;;;;;13.74;46.47;99300.75;6206158;28;98335;-63
2021/11/12 14:00:28;;;;;;;;;48.60;39.00;;;;;13.77;46.78;99296.75;6212746;28;97514;-63
2021/11/12 14:03:37;;;;;;;;;52.50;40.00;;;;;13.81;46.51;99289.81;6214156;28;96520;-63
2021/11/12 14:06:41;;;;;;;;;51.20;39.00;;;;;13.77;46.52;99292.16;6225490;28;97253;-64
2021/11/12 14:10:01;;;;;;;;;50.00;38.50;;;;;13.74;46.46;99300.75;6212533;28;96594;-63
2021/11/12 14:13:06;;;;;;;;;53.25;41.00;;;;;13.49;46.62;99286.53;6213230;28;96686;-62
2021/11/12 14:16:14;;;;;;;;;55.00;40.00;;;;;13.55;47.30;99306.44;6212099;28;98162;-63
2021/11/12 14:22:51;;;;;;;;;55.25;42.75;;;;;13.41;47.48;99303.94;6181352;28;99482;-64
2021/11/12 14:29:41;;;;;;;;;50.40;38.00;;;;;13.21;47.87;99297.13;6205884;28;97235;-62
2021/11/12 14:33:01;;;;;;;;;49.25;38.50;;;;;13.05;48.22;99300.47;6210825;28;97558;-63
2021/11/12 14:36:32;;;;;;;;;50.00;39.00;;;;;12.96;48.27;99284.50;6212958;28;96810;-62
2021/11/12 14:39:51;;;;;;;;;48.00;38.00;;;;;12.87;48.42;99288.59;6213267;28;96936;-62
2021/11/12 14:43:16;;;;;;;;;53.00;40.00;;;;;12.71;48.63;99291.06;6212066;28;97460;-62
2021/11/12 14:46:25;;;;;;;;;47.00;38.00;;;;;12.60;48.80;99281.84;6220103;28;97925;-64
2021/11/12 14:49:31;;;;;;;;;48.50;37.75;;;;;12.44;49.29;99285.97;6212273;28;96980;-63
2021/11/12 14:52:36;;;;;;;;;46.80;35.80;;;;;12.17;49.79;99297.25;6211148;28;97577;-63
2021/11/12 14:55:42;;;;;;;;;45.00;36.00;;;;;12.10;49.86;99286.50;6209931;28;97249;-64
2021/11/12 14:58:48;;;;;;;;;50.00;38.00;;;;;12.23;49.71;99288.25;6208823;28;97974;-63
2021/11/12 15:01:52;;;;;;;;;50.40;38.00;;;;;12.27;49.62;99284.88;6209359;28;97486;-62
2021/11/12 15:04:56;;;;;;;;;46.00;35.20;;;;;11.99;50.04;99265.59;6211130;28;96665;-63
2021/11/12 15:08:06;;;;;;;;;47.00;35.00;;;;;12.35;49.53;99289.16;6210267;28;97218;-63
2021/11/12 15:11:10;;;;;;;;;46.00;36.00;;;;;12.47;49.25;99288.19;6207497;28;97490;-63
2021/11/12 15:14:16;;;;;;;;;45.00;36.00;;;;;12.57;49.12;99290.38;6225442;28;96682;-63
2021/11/12 15:17:37;;;;;;;;;50.50;38.00;;;;;12.56;48.93;99280.59;6206742;28;96687;-64
2021/11/12 15:20:41;;;;;;;;;47.00;35.00;;;;;12.61;48.84;99280.75;6211197;28;97372;-62
2021/11/12 15:23:57;;;;;;;;;48.20;36.40;;;;;12.57;49.00;99277.69;6224247;27;96986;-62
2021/11/12 15:27:08;;;;;;;;;49.80;37.20;;;;;12.66;48.89;99274.72;6204334;28;97402;-63
2021/11/12 15:30:18;;;;;;;;;49.00;37.60;;;;;12.69;48.90;99272.38;6211749;28;97080;-62
2021/11/12 15:33:21;;;;;;;;;45.40;34.80;;;;;12.67;48.82;99268.22;6212365;28;97496;-62
2021/11/12 15:36:25;;;;;;;;;45.25;35.00;;;;;12.59;48.83;99266.66;6211370;28;97058;-62
2021/11/12 15:39:39;;;;;;;;;46.20;36.00;;;;;12.32;49.87;99265.28;6209651;28;96957;-63
2021/11/12 15:46:09;;;;;;;;;48.60;36.00;;;;;11.89;50.93;99265.25;6204253;28;97041;-64
2021/11/12 15:49:16;;;;;;;;;47.40;37.00;;;;;12.05;50.47;99275.53;6212230;28;97020;-64
2021/11/12 15:52:23;;;;;;;;;46.50;36.00;;;;;12.02;50.56;99271.38;6211821;28;96592;-64
2021/11/12 15:55:35;;;;;;;;;45.67;35.00;;;;;11.87;51.00;99272.78;6211740;28;97379;-63
2021/11/12 15:58:47;;;;;;;;;48.00;38.00;;;;;11.95;50.76;99275.19;6209278;28;98441;-63
2021/11/12 16:05:35;;;;;;;;;51.00;38.00;;;;;12.11;50.76;99271.94;6154405;28;97351;-63
2021/11/12 16:08:50;;;;;;;;;50.60;39.60;;;;;12.13;50.52;99275.22;6211844;28;98115;-63
2021/11/12 16:12:15;;;;;;;;;47.00;38.00;;;;;12.18;50.61;99280.81;6213593;28;96481;-64
2021/11/12 16:15:30;;;;;;;;;51.40;39.60;;;;;12.29;50.48;99285.47;6204024;28;97017;-64
2021/11/12 16:18:47;;;;;;;;;52.00;40.20;;;;;12.33;50.50;99283.97;6209595;28;98455;-63
2021/11/12 16:25:19;;;;;;;;;55.00;41.00;;;;;12.02;51.40;99287.59;6274095;27;96519;-63
2021/11/12 16:28:24;;;;;;;;;50.50;40.25;;;;;12.17;51.19;99278.34;6241247;27;97810;-63
2021/11/12 16:31:29;;;;;;;;;52.25;41.00;;;;;12.24;50.99;99281.78;6232199;28;96645;-63
2021/11/12 16:34:37;;;;;;;;;51.75;39.00;;;;;12.05;51.43;99272.81;6232456;28;96891;-63
2021/11/12 16:37:41;;;;;;;;;50.40;39.60;;;;;11.93;51.39;99267.31;6231953;28;97522;-62
2021/11/12 16:40:49;;;;;;;;;53.20;41.00;;;;;12.07;51.19;99285.06;6229977;28;96486;-64
2021/11/12 16:44:10;;;;;;;;;52.00;39.00;;;;;12.19;51.01;99268.94;6232317;27;96797;-63
2021/11/12 16:47:26;;;;;;;;;53.00;40.75;;;;;12.12;50.89;99269.00;6232329;27;97575;-62
2021/11/12 16:50:40;;;;;;;;;52.50;40.00;;;;;12.19;50.98;99268.13;6219750;27;97759;-64
2021/11/12 16:53:57;;;;;;;;;47.00;37.00;;;;;12.08;51.14;99277.78;6218764;28;97560;-62
2021/11/12 17:00:50;;;;;;;;;47.20;36.00;;;;;12.28;50.95;99269.47;6231925;28;97059;-63
2021/11/12 17:07:28;;;;;;;;;49.60;38.80;;;;;11.81;51.78;99271.78;6206872;28;97506;-62
2021/11/12 17:10:45;;;;;;;;;49.80;37.60;;;;;11.86;51.54;99276.53;6202297;28;97618;-62
2021/11/12 17:14:10;;;;;;;;;51.80;38.20;;;;;11.83;51.88;99272.38;6205264;28;96846;-63
2021/11/12 17:47:43;;;;;;;;;50.20;38.60;;;;;10.87;54.47;99269.00;6213436;28;96741;-64
2021/11/12 17:50:59;;;;;;;;;51.60;38.00;;;;;10.82;54.72;99256.16;6212552;28;98206;-63
2021/11/12 18:04:11;;;;;;;;;53.00;39.00;;;;;11.06;54.42;99249.19;6222744;28;99935;-64
2021/11/12 18:07:25;;;;;;;;;50.00;39.40;;;;;11.17;54.01;99247.69;6210610;28;97282;-63
2021/11/12 18:14:03;;;;;;;;;50.20;39.20;;;;;11.45;53.56;99236.50;6206359;28;97496;-63
2021/11/12 21:44:56;;;;;;;;;56.60;42.00;;;;;12.09;52.72;99191.06;6212383;28;97499;-62
2021/11/12 21:47:59;;;;;;;;;54.75;42.00;;;;;12.17;52.33;99187.25;6211160;28;97606;-62
2021/11/12 21:51:05;;;;;;;;;55.60;42.00;;;;;12.21;52.19;99184.94;6210817;28;97472;-63
2021/11/12 21:54:10;;;;;;;;;56.00;42.60;;;;;12.21;52.21;99182.22;6194819;28;96947;-63
2021/11/12 21:57:13;;;;;;;;;53.80;40.00;;;;;12.17;52.16;99176.44;6210959;28;98143;-62
2021/11/12 22:00:17;;;;;;;;;55.60;41.00;;;;;12.18;52.11;99179.97;6204969;28;97472;-62
2021/11/12 22:03:20;;;;;;;;;54.20;42.20;;;;;12.15;52.20;99182.06;6211121;28;97204;-63
2021/11/12 22:06:24;;;;;;;;;56.20;42.00;;;;;12.09;52.08;99184.84;6197722;28;96687;-64